Flight Track Log - Related Links

Times and Time Zones

All times are in EDT time to prevent confusion due to time zone crossing. See the UAL994 flight status page for this flight to view local times or setup timezone preferences in your user account.

Time Position Orientation Groundspeed Altitude Reporting Facility
EDT Latitude Longitude Course Direction KTS MPH feet Rate Location/Type
Tue 11:25:07 AM 41.3947 -81.8814 272° West 156 180 1,600  Level Cleveland Center
Tue 11:26:13 AM 41.3964 -81.9417 272° West 169 194 3,100 1,823 Climbing Cleveland Center
Tue 11:26:26 AM 41.3967 -81.9711 271° West 208 239 4,000 3,639 Climbing Cleveland Center
Tue 11:27:14 AM 41.4033 -82.0344 278° West 206 237 6,800 3,045 Climbing Cleveland Center
Tue 11:27:33 AM 41.4119 -82.0544 300° West 235 270 7,400 2,129 Climbing Cleveland Center
Tue 11:28:16 AM 41.4622 -82.0867 334° Northwest 254 292 9,000 2,455 Climbing Cleveland Center
Tue 11:28:39 AM 41.4922 -82.0958 347° North 296 341 10,100 2,710 Climbing Cleveland Center
Tue 11:29:18 AM 41.5314 -82.0514 40° Northeast 299 344 11,800 2,733 Climbing Cleveland Center
Tue 11:30:20 AM 41.5803 -81.9531 56° Northeast 310 357 14,700 2,585 Climbing Cleveland Center
Tue 11:31:21 AM 41.6303 -81.8511 57° Northeast 320 368 17,100 2,293 Climbing Cleveland Center
Tue 11:32:23 AM 41.6819 -81.7450 57° Northeast 330 380 19,400 1,790 Climbing Cleveland Center
Tue 11:33:25 AM 41.7369 -81.6325 57° Northeast 351 404 20,800 1,548 Climbing Cleveland Center
Tue 11:34:27 AM 41.7967 -81.5075 57° Northeast 387 445 22,600 1,645 Climbing Cleveland Center
Tue 11:35:29 AM 41.8467 -81.3708 64° Northeast 404 465 24,200 1,548 Climbing Cleveland Center
Tue 11:36:31 AM 41.8622 -81.2133 82° East 422 486 25,800 1,561 Climbing Cleveland Center
Tue 11:37:32 AM 41.8475 -81.0528 97° East 432 497 27,400 1,463 Climbing Cleveland Center
Tue 11:38:34 AM 41.8333 -80.8908 97° East 429 494 28,800 1,452 Climbing Cleveland Center
Tue 11:39:36 AM 41.8142 -80.6942 97° East 447 514 30,400 1,355 Climbing Cleveland Center
Tue 11:40:38 AM 41.7958 -80.5214 98° East 458 527 31,600 1,403 Climbing Cleveland Center
Tue 11:41:40 AM 41.7789 -80.3481 97° East 463 533 33,300 1,645 Climbing Cleveland Center
Tue 11:42:42 AM 41.7617 -80.1781 98° East 459 528 35,000 1,561 Climbing Cleveland Center
Tue 11:43:43 AM 41.7439 -80.0119 98° East 449 517 36,500 976 Climbing Cleveland Center
Tue 11:44:45 AM 41.7275 -79.8472 98° East 446 513 37,000 242 Climbing Cleveland Center
Tue 11:45:47 AM 41.7103 -79.6847 98° East 442 509 37,000  Level Cleveland Center
Tue 11:46:49 AM 41.6919 -79.5183 98° East 437 503 37,000  Level Cleveland Center
Tue 11:47:50 AM 41.6750 -79.3564 98° East 439 505 37,000  Level Cleveland Center
Tue 11:48:52 AM 41.6533 -79.1717 99° East 441 507 37,000  Level Cleveland Center
Tue 11:49:54 AM 41.6358 -79.0006 98° East 441 507 37,000  Level Cleveland Center
Tue 11:50:56 AM 41.6164 -78.8394 99° East 441 507 37,000  Level Cleveland Center
Tue 11:51:58 AM 41.5989 -78.6792 98° East 441 507 37,000  Level Cleveland Center
Tue 11:52:59 AM 41.5794 -78.5189 99° East 439 505 37,000 -244 Level Cleveland Center
Tue 11:54:01 AM 41.5597 -78.3578 99° East 439 505 36,500 -1,258 Descending Cleveland Center
Tue 11:55:03 AM 41.5403 -78.1950 99° East 440 506 34,400 -2,516 Descending Cleveland Center
Tue 11:56:05 AM 41.5200 -78.0286 99° East 451 519 31,300 -1,645 Descending Cleveland Center
Tue 11:57:07 AM 41.4936 -77.8275 100° East 458 527 31,000 -145 Descending Cleveland Center
Tue 11:58:09 AM 41.4697 -77.6625 101° East 458 527 31,000  Level Cleveland Center
Tue 11:59:10 AM 41.4386 -77.4986 104° East 458 527 31,000  Level Cleveland Center
Tue 12:00:12 PM 41.4058 -77.3361 105° East 458 527 31,000  Level Cleveland Center
Tue 12:00:49 PM 41.3814 -77.2272 107° East 456 525 31,000  Level New York Center
Tue 12:01:48 PM 41.3503 -77.0667 104° East 456 525 31,000 -893 Level New York Center
Tue 12:02:50 PM 41.3172 -76.9033 105° East 450 518 29,200 -2,050 Descending New York Center
Tue 12:03:48 PM 41.2836 -76.7431 106° East 450 518 26,900 -2,288 Descending New York Center
Tue 12:04:48 PM 41.2517 -76.5911 106° East 445 512 24,700 -2,200 Descending New York Center
Tue 12:05:48 PM 41.2214 -76.4394 105° East 440 506 22,500 -2,100 Descending New York Center
Tue 12:06:48 PM 41.1908 -76.2936 106° East 429 494 20,500 -2,066 Descending New York Center
Tue 12:07:50 PM 41.1619 -76.1506 105° East 411 473 18,300 -1,300 Descending New York Center
Tue 12:08:48 PM 41.1361 -76.0300 106° East 385 443 17,900 -1,475 Descending New York Center
Tue 12:10:00 PM 41.0924 -75.8956 113° Southeast  Level FlightAware Approximate
Tue 12:10:49 PM 41.0644 -75.7658 113° Southeast 367 422 13,900  Level New York Center
Tue 12:11:49 PM 41.0319 -75.6425 109° East 357 411 13,000 -443 Descending New York Center
Tue 12:12:51 PM 41.0008 -75.5358 111° Southeast 352 405 13,000 -1,008 Level New York Center
Tue 12:13:48 PM 40.9625 -75.4011 111° Southeast 352 405 11,000 -1,462 Descending New York Center
Tue 12:14:50 PM 40.9353 -75.2978 109° East 352 405 10,100 -1,131 Descending New York Center
Tue 12:15:50 PM 40.9039 -75.1939 112° Southeast 323 372 8,700 -1,525 Descending New York Center
Tue 12:16:48 PM 40.8744 -75.0850 110° East 295 339 7,100 -843 Descending New York Center
Tue 12:17:51 PM 40.8447 -74.9844 111° Southeast 290 334 7,000 -50 Descending New York Center
Tue 12:18:49 PM 40.8650 -74.8842 75° East 272 313 7,000 -400 Level New York Center
Tue 12:19:51 PM 40.8933 -74.7869 69° East 277 319 6,200 -500 Descending New York Center
Tue 12:20:49 PM 40.9172 -74.6978 70° East 282 325 6,000 -100 Descending New York Center
Tue 12:21:51 PM 40.9356 -74.5836 78° East 282 325 6,000 -500 Level New York Center
Tue 12:22:49 PM 40.9489 -74.4936 79° East 277 319 5,000 -504 Descending New York Center
Tue 12:23:50 PM 40.9711 -74.3794 76° East 277 319 5,000 -242 Level New York Center
Tue 12:24:28 PM 40.9833 -74.3167 76° East 250 288 4,600 -612 Descending New York TRACON
Tue 12:25:28 PM 40.9833 -74.2333 90° East 240 276 4,000 -300 Descending New York TRACON
Tue 12:26:28 PM 40.9667 -74.1667 108° East 193 222 4,000 -50 Level New York TRACON
Tue 12:27:28 PM 40.9333 -74.1167 131° Southeast 195 224 3,900 -500 Descending New York TRACON
Tue 12:28:28 PM 40.9000 -74.0833 143° Southeast 181 208 3,000 -450 Descending New York TRACON
Tue 12:29:28 PM 40.8500 -74.0833 180° South 183 211 3,000 -550 Level New York TRACON
Tue 12:30:28 PM 40.8000 -74.1000 194° South 169 194 1,900 -950 Descending New York TRACON
Tue 12:31:28 PM 40.7500 -74.1167 194° South 167 192 1,100 -750 Descending New York TRACON
Tue 12:32:28 PM 40.7167 -74.1500 217° Southwest 130 150 400 -700 Descending New York TRACON

Login

Don't have an account? Register now (free) for customized features, flight alerts, and more!